Last Tycoon — ZDJZ6 — position and weather

sailwx.info

Track history (hours):
 
Tides and Currents Weather Stations Pressure Air Temp Water Temp Dewpoint Dewpoint Depression Visibility Wind Speed Wind Dir Waves Ship Positions

Last Tycoon

Last reported at 2016-Nov-26 05:26 UTC. Time now 2016-Dec-04 12:20 UTC.
Position N 37°41' E 024°13'.
Warning: this ship's position is 8 days out of date.

Length 180 m; draft 10.2 m.

Type: Cargo ship. MMSI: 236607000.

Date/timePositionNaut miles runAvg speedWind from/ knotsBaromVisibWave heightAir tempDewpointWater temp
2016-Nov-26 05:26N 37°41' E 024°13'1213.6
2016-Nov-26 04:33N 37°48' E 024°25'14813.5
2016-Nov-25 17:32N 39°59' E 025°57'  
2016-Nov-22 22:32N 46°15' E 030°54'40 7.9
2016-Nov-22 17:32N 46°36' E 031°43'9 8.9
2016-Nov-22 16:33N 46°39' E 031°55'8 8.3
2016-Nov-22 15:33N 46°47' E 031°53'6 5.6
2016-Nov-22 14:33N 46°51' E 031°59'0 0.1
2016-Nov-22 13:33N 46°51' E 031°59'0 0.0
2016-Nov-22 10:33N 46°51' E 031°59'0 0.0
2016-Nov-22 09:33N 46°51' E 031°59'0 0.0
2016-Nov-22 08:33N 46°51' E 031°59'0 0.0
2016-Nov-22 07:33N 46°51' E 031°59'0 0.0
2016-Nov-22 05:33N 46°51' E 031°59'0 0.0
2016-Nov-21 23:33N 46°51' E 031°59'0 0.0
2016-Nov-21 21:33N 46°51' E 031°59'0 0.0
2016-Nov-21 17:33N 46°51' E 031°59'0 0.0
2016-Nov-21 14:33N 46°51' E 031°59'0 0.0
2016-Nov-21 13:33N 46°51' E 031°59'0 0.0
2016-Nov-21 12:33N 46°51' E 031°59'0 0.0
2016-Nov-21 11:33N 46°51' E 031°59'0 0.0
2016-Nov-21 10:33N 46°51' E 031°59'0 0.0
2016-Nov-21 08:33N 46°51' E 031°59'0 0.0
2016-Nov-21 07:30N 46°51' E 031°59'0 0.0
2016-Nov-21 05:33N 46°51' E 031°59'0 0.0
2016-Nov-21 04:33N 46°51' E 031°59'0 0.0
2016-Nov-21 02:33N 46°51' E 031°59'0 0.0
2016-Nov-21 00:33N 46°51' E 031°59'0 0.0
2016-Nov-20 22:33N 46°51' E 031°59'0 0.0
2016-Nov-20 21:32N 46°51' E 031°59'0 0.0
2016-Nov-20 17:33N 46°51' E 031°59'0 0.0
2016-Nov-20 16:29N 46°51' E 031°59'0 0.0
2016-Nov-20 14:33N 46°51' E 031°59'0 0.0
2016-Nov-20 13:32N 46°51' E 031°59'0 0.0
2016-Nov-20 12:32N 46°51' E 031°59'0 0.0
2016-Nov-20 09:33N 46°51' E 031°59'0 0.0
2016-Nov-20 08:32N 46°51' E 031°59'0 0.0
2016-Nov-20 07:32N 46°51' E 031°59'0 0.1
2016-Nov-20 06:32N 46°51' E 031°59'0 0.0
2016-Nov-20 05:29N 46°51' E 031°59'0 0.0
2016-Nov-20 04:32N 46°51' E 031°59'0 0.0
2016-Nov-20 03:32N 46°51' E 031°59'0 0.0
2016-Nov-20 01:32N 46°51' E 031°59'0 0.0
2016-Nov-19 23:32N 46°51' E 031°59'0 0.0
2016-Nov-19 22:32N 46°51' E 031°59'0 0.0
2016-Nov-19 20:32N 46°51' E 031°59'0 0.0
2016-Nov-19 19:32N 46°51' E 031°59'0 0.0
2016-Nov-19 17:29N 46°51' E 031°59'0 0.0
2016-Nov-19 16:32N 46°51' E 031°59'0 0.0
2016-Nov-19 14:32N 46°51' E 031°59'0 0.0
2016-Nov-19 11:32N 46°51' E 031°59'0 0.0
2016-Nov-19 09:32N 46°51' E 031°59'0 0.0
2016-Nov-19 07:32N 46°51' E 031°59'0 0.0
2016-Nov-19 05:32N 46°51' E 031°59'0 0.0
2016-Nov-19 04:32N 46°51' E 031°59'0 0.0
2016-Nov-19 03:32N 46°51' E 031°59'0 0.0
2016-Nov-19 02:29N 46°51' E 031°59'0 0.0
2016-Nov-19 01:32N 46°51' E 031°59'0 0.0
2016-Nov-19 00:32N 46°51' E 031°59'0 0.0
2016-Nov-18 23:32N 46°51' E 031°59'0 0.0
2016-Nov-18 20:32N 46°51' E 031°59'1 0.6
2016-Nov-18 18:33N 46°51' E 031°57'7 7.2
2016-Nov-18 17:33N 46°44' E 031°56'43 8.6
2016-Nov-18 12:33N 46°30' E 030°57'8 8.0
2016-Nov-18 11:30N 46°22' E 030°60'  
Track history (hours):
 
Tides and Currents Weather Stations Pressure Air Temp Water Temp Dewpoint Dewpoint Depression Visibility Wind Speed Wind Dir Waves Ship Positions

Last Tycoon

Last reported at 2016-Nov-26 05:26 UTC. Time now 2016-Dec-04 12:20 UTC.
Position N 37°41' E 024°13'.
Warning: this ship's position is 8 days out of date.

Length 180 m; draft 10.2 m.

Type: Cargo ship. MMSI: 236607000.

Date/timePositionNaut miles runAvg speedWind from/ knotsBaromVisibWave heightAir tempDewpointWater temp
2016-Nov-26 05:26N 37°41' E 024°13'1213.6
2016-Nov-26 04:33N 37°48' E 024°25'14813.5
2016-Nov-25 17:32N 39°59' E 025°57'  
2016-Nov-22 22:32N 46°15' E 030°54'40 7.9
2016-Nov-22 17:32N 46°36' E 031°43'9 8.9
2016-Nov-22 16:33N 46°39' E 031°55'8 8.3
2016-Nov-22 15:33N 46°47' E 031°53'6 5.6
2016-Nov-22 14:33N 46°51' E 031°59'0 0.1
2016-Nov-22 13:33N 46°51' E 031°59'0 0.0
2016-Nov-22 10:33N 46°51' E 031°59'0 0.0
2016-Nov-22 09:33N 46°51' E 031°59'0 0.0
2016-Nov-22 08:33N 46°51' E 031°59'0 0.0
2016-Nov-22 07:33N 46°51' E 031°59'0 0.0
2016-Nov-22 05:33N 46°51' E 031°59'0 0.0
2016-Nov-21 23:33N 46°51' E 031°59'0 0.0
2016-Nov-21 21:33N 46°51' E 031°59'0 0.0
2016-Nov-21 17:33N 46°51' E 031°59'0 0.0
2016-Nov-21 14:33N 46°51' E 031°59'0 0.0
2016-Nov-21 13:33N 46°51' E 031°59'0 0.0
2016-Nov-21 12:33N 46°51' E 031°59'0 0.0
2016-Nov-21 11:33N 46°51' E 031°59'0 0.0
2016-Nov-21 10:33N 46°51' E 031°59'0 0.0
2016-Nov-21 08:33N 46°51' E 031°59'0 0.0
2016-Nov-21 07:30N 46°51' E 031°59'0 0.0
2016-Nov-21 05:33N 46°51' E 031°59'0 0.0
2016-Nov-21 04:33N 46°51' E 031°59'0 0.0
2016-Nov-21 02:33N 46°51' E 031°59'0 0.0
2016-Nov-21 00:33N 46°51' E 031°59'0 0.0
2016-Nov-20 22:33N 46°51' E 031°59'0 0.0
2016-Nov-20 21:32N 46°51' E 031°59'0 0.0
2016-Nov-20 17:33N 46°51' E 031°59'0 0.0
2016-Nov-20 16:29N 46°51' E 031°59'0 0.0
2016-Nov-20 14:33N 46°51' E 031°59'0 0.0
2016-Nov-20 13:32N 46°51' E 031°59'0 0.0
2016-Nov-20 12:32N 46°51' E 031°59'0 0.0
2016-Nov-20 09:33N 46°51' E 031°59'0 0.0
2016-Nov-20 08:32N 46°51' E 031°59'0 0.0
2016-Nov-20 07:32N 46°51' E 031°59'0 0.1
2016-Nov-20 06:32N 46°51' E 031°59'0 0.0
2016-Nov-20 05:29N 46°51' E 031°59'0 0.0
2016-Nov-20 04:32N 46°51' E 031°59'0 0.0
2016-Nov-20 03:32N 46°51' E 031°59'0 0.0
2016-Nov-20 01:32N 46°51' E 031°59'0 0.0
2016-Nov-19 23:32N 46°51' E 031°59'0 0.0
2016-Nov-19 22:32N 46°51' E 031°59'0 0.0
2016-Nov-19 20:32N 46°51' E 031°59'0 0.0
2016-Nov-19 19:32N 46°51' E 031°59'0 0.0
2016-Nov-19 17:29N 46°51' E 031°59'0 0.0
2016-Nov-19 16:32N 46°51' E 031°59'0 0.0
2016-Nov-19 14:32N 46°51' E 031°59'0 0.0
2016-Nov-19 11:32N 46°51' E 031°59'0 0.0
2016-Nov-19 09:32N 46°51' E 031°59'0 0.0
2016-Nov-19 07:32N 46°51' E 031°59'0 0.0
2016-Nov-19 05:32N 46°51' E 031°59'0 0.0
2016-Nov-19 04:32N 46°51' E 031°59'0 0.0
2016-Nov-19 03:32N 46°51' E 031°59'0 0.0
2016-Nov-19 02:29N 46°51' E 031°59'0 0.0
2016-Nov-19 01:32N 46°51' E 031°59'0 0.0
2016-Nov-19 00:32N 46°51' E 031°59'0 0.0
2016-Nov-18 23:32N 46°51' E 031°59'0 0.0
2016-Nov-18 20:32N 46°51' E 031°59'1 0.6
2016-Nov-18 18:33N 46°51' E 031°57'7 7.2
2016-Nov-18 17:33N 46°44' E 031°56'43 8.6
2016-Nov-18 12:33N 46°30' E 030°57'8 8.0
2016-Nov-18 11:30N 46°22' E 030°60'  

Dump ship's entire track history